Time;durP1;ratioP1;P1;durP2;ratioP2;P2;SDS_P1;SDS_P2;PMS_P1;PMS_P2;Temp;Humidity;BMP_temperature;BMP_pressure;BME280_temperature;BME280_humidity;BME280_pressure;Samples;Min_cycle;Max_cycle;Signal;HPM_P1;HPM_P2
2021/12/30 00:02:25;;;;;;;34.03;5.28;;;;;;;;;;5003411;28;20507;-81
2021/12/30 00:04:51;;;;;;;41.53;5.78;;;;;;;;;;5003762;28;20041;-80
2021/12/30 00:07:17;;;;;;;42.17;5.75;;;;;;;;;;5007793;28;20045;-80
2021/12/30 00:09:43;;;;;;;43.30;6.43;;;;;;;;;;5004543;28;20080;-81
2021/12/30 00:12:10;;;;;;;31.02;5.50;;;;;;;;;;5006954;28;20627;-81
2021/12/30 00:14:36;;;;;;;36.95;4.97;;;;;;;;;;5004369;28;20100;-81
2021/12/30 00:17:03;;;;;;;35.75;5.25;;;;;;;;;;5003481;28;20164;-80
2021/12/30 00:19:29;;;;;;;36.33;5.85;;;;;;;;;;5006057;28;20084;-80
2021/12/30 00:21:55;;;;;;;45.25;4.88;;;;;;;;;;5005158;28;20034;-83
2021/12/30 00:24:21;;;;;;;51.08;7.38;;;;;;;;;;5009490;28;20077;-82
2021/12/30 00:26:48;;;;;;;36.42;5.05;;;;;;;;;;5008025;28;20030;-82
2021/12/30 00:29:15;;;;;;;38.80;5.20;;;;;;;;;;5007484;28;20049;-81
2021/12/30 00:31:41;;;;;;;31.33;5.43;;;;;;;;;;5004826;28;20053;-81
2021/12/30 00:34:07;;;;;;;47.28;6.75;;;;;;;;;;4987273;28;20518;-83
2021/12/30 00:36:33;;;;;;;39.47;5.18;;;;;;;;;;5012477;28;20060;-81
2021/12/30 00:38:59;;;;;;;50.95;5.68;;;;;;;;;;5018111;28;20124;-81
2021/12/30 00:41:25;;;;;;;38.95;5.68;;;;;;;;;;5020337;28;20041;-80
2021/12/30 00:43:51;;;;;;;51.45;6.00;;;;;;;;;;5020282;28;20056;-83
2021/12/30 00:46:17;;;;;;;38.08;5.18;;;;;;;;;;5004516;28;20041;-80
2021/12/30 00:48:44;;;;;;;43.72;5.85;;;;;;;;;;5017829;28;20509;-80
2021/12/30 00:51:10;;;;;;;47.58;6.78;;;;;;;;;;5010035;28;20041;-80
2021/12/30 00:53:36;;;;;;;36.42;6.07;;;;;;;;;;5025227;28;20509;-80
2021/12/30 00:56:02;;;;;;;45.15;6.03;;;;;;;;;;5008296;28;20045;-81
2021/12/30 00:58:28;;;;;;;40.45;5.85;;;;;;;;;;4988575;28;20045;-80
2021/12/30 01:00:55;;;;;;;48.42;6.80;;;;;;;;;;5007264;28;20358;-81
2021/12/30 01:03:21;;;;;;;37.35;6.25;;;;;;;;;;5023460;28;20045;-81
2021/12/30 01:05:47;;;;;;;41.13;6.78;;;;;;;;;;5014851;28;20065;-81
2021/12/30 01:08:14;;;;;;;51.05;7.18;;;;;;;;;;5011662;28;20516;-82
2021/12/30 01:10:41;;;;;;;49.00;7.05;;;;;;;;;;5006785;28;20128;-83
2021/12/30 01:13:14;;;;;;;52.53;6.57;;;;;;;;;;5009220;28;20091;-83
2021/12/30 01:16:01;;;;;;;50.80;6.85;;;;;;;;;;5013376;28;20041;-83
2021/12/30 01:21:29;;;;;;;51.83;6.68;;;;;;;;;;4979658;28;20046;-83
2021/12/30 01:23:56;;;;;;;60.47;7.25;;;;;;;;;;5006079;28;20050;-81
2021/12/30 01:26:22;;;;;;;57.85;8.23;;;;;;;;;;5006350;28;20525;-82
2021/12/30 01:28:49;;;;;;;48.55;6.75;;;;;;;;;;5006356;28;20498;-81
2021/12/30 01:31:16;;;;;;;54.78;7.38;;;;;;;;;;5017965;28;20629;-82
2021/12/30 01:33:44;;;;;;;52.92;7.10;;;;;;;;;;5003821;28;20144;-81
2021/12/30 01:36:10;;;;;;;49.08;7.07;;;;;;;;;;5006862;28;20133;-82
2021/12/30 01:38:37;;;;;;;48.88;6.45;;;;;;;;;;5004756;28;20046;-82
2021/12/30 01:41:03;;;;;;;53.70;8.95;;;;;;;;;;5004679;28;20050;-82
2021/12/30 01:43:30;;;;;;;58.58;7.47;;;;;;;;;;5005998;28;20038;-82
2021/12/30 01:45:56;;;;;;;64.22;8.20;;;;;;;;;;5005587;28;20046;-82
2021/12/30 01:48:22;;;;;;;57.05;6.90;;;;;;;;;;5009874;28;20046;-81
2021/12/30 01:50:49;;;;;;;58.55;8.80;;;;;;;;;;5009664;28;20156;-82
2021/12/30 01:53:15;;;;;;;51.47;6.68;;;;;;;;;;5017314;28;20050;-82
2021/12/30 01:55:42;;;;;;;58.58;8.38;;;;;;;;;;5012362;28;20041;-82
2021/12/30 01:58:08;;;;;;;44.15;5.65;;;;;;;;;;5014153;28;20079;-82
2021/12/30 02:00:35;;;;;;;56.15;8.02;;;;;;;;;;5016386;28;20041;-81
2021/12/30 02:03:01;;;;;;;53.95;6.88;;;;;;;;;;5015142;28;20099;-81
2021/12/30 02:05:28;;;;;;;56.33;7.15;;;;;;;;;;5015195;28;20390;-81
2021/12/30 02:07:54;;;;;;;60.58;8.82;;;;;;;;;;5019725;28;20143;-85
2021/12/30 02:10:20;;;;;;;65.75;7.93;;;;;;;;;;5020286;28;20508;-83
2021/12/30 02:12:47;;;;;;;67.75;10.15;;;;;;;;;;5021805;28;20038;-82
2021/12/30 02:15:14;;;;;;;74.38;9.10;;;;;;;;;;5020076;28;20042;-82
2021/12/30 02:17:40;;;;;;;60.60;7.85;;;;;;;;;;5019065;28;20061;-83
2021/12/30 02:20:09;;;;;;;61.80;8.05;;;;;;;;;;5015487;28;20038;-83
2021/12/30 02:22:35;;;;;;;56.83;7.93;;;;;;;;;;5016374;28;20061;-85
2021/12/30 02:25:03;;;;;;;63.33;8.82;;;;;;;;;;5021615;28;20053;-84
2021/12/30 02:27:30;;;;;;;52.78;7.85;;;;;;;;;;5000080;28;20038;-84
2021/12/30 02:29:56;;;;;;;65.40;8.32;;;;;;;;;;5011990;28;20081;-83
2021/12/30 02:32:22;;;;;;;64.57;9.13;;;;;;;;;;5020412;28;20461;-85
2021/12/30 02:34:49;;;;;;;57.17;7.57;;;;;;;;;;5016356;28;20068;-88
2021/12/30 02:37:18;;;;;;;55.95;7.95;;;;;;;;;;5029567;28;20108;-80
2021/12/30 02:39:49;;;;;;;56.50;7.32;;;;;;;;;;5018228;28;20042;-81
2021/12/30 02:42:15;;;;;;;66.20;8.98;;;;;;;;;;5028944;28;20060;-81
2021/12/30 02:44:41;;;;;;;58.40;8.00;;;;;;;;;;5020017;28;20088;-82
2021/12/30 02:47:07;;;;;;;61.17;8.23;;;;;;;;;;5018557;28;20076;-81
2021/12/30 02:49:33;;;;;;;70.13;9.40;;;;;;;;;;5017208;28;20084;-81
2021/12/30 02:51:59;;;;;;;60.65;7.32;;;;;;;;;;4999747;28;20063;-81
2021/12/30 02:54:25;;;;;;;45.10;7.03;;;;;;;;;;4995123;28;20057;-83
2021/12/30 02:56:51;;;;;;;55.78;8.63;;;;;;;;;;5017312;28;20057;-85
2021/12/30 02:59:20;;;;;;;44.97;8.20;;;;;;;;;;5021027;28;20042;-84
2021/12/30 03:01:47;;;;;;;50.97;7.28;;;;;;;;;;5013176;28;20057;-86
2021/12/30 03:04:13;;;;;;;52.83;7.43;;;;;;;;;;5010681;28;20100;-82
2021/12/30 03:06:39;;;;;;;48.22;7.82;;;;;;;;;;5008606;28;20053;-82
2021/12/30 03:09:05;;;;;;;50.55;6.95;;;;;;;;;;5011217;28;20056;-82
2021/12/30 03:11:31;;;;;;;60.40;7.47;;;;;;;;;;5006510;28;20042;-82
2021/12/30 03:13:59;;;;;;;61.60;8.05;;;;;;;;;;5008891;28;20133;-83
2021/12/30 03:16:31;;;;;;;59.22;7.88;;;;;;;;;;5013172;28;20034;-81
2021/12/30 03:18:58;;;;;;;44.15;6.57;;;;;;;;;;5011859;28;20460;-81
2021/12/30 03:21:24;;;;;;;75.53;8.80;;;;;;;;;;5005663;28;20052;-82
2021/12/30 03:23:51;;;;;;;47.70;7.43;;;;;;;;;;5015448;28;20037;-82
2021/12/30 03:26:18;;;;;;;59.70;6.90;;;;;;;;;;5013535;28;20107;-82
2021/12/30 03:28:44;;;;;;;58.17;6.50;;;;;;;;;;5016305;28;20413;-82
2021/12/30 03:31:12;;;;;;;54.10;7.82;;;;;;;;;;5013723;28;20100;-83
2021/12/30 03:33:39;;;;;;;57.20;7.15;;;;;;;;;;5010879;28;20450;-82
2021/12/30 03:36:05;;;;;;;65.25;8.00;;;;;;;;;;5022148;28;20041;-80
2021/12/30 03:38:32;;;;;;;64.18;8.55;;;;;;;;;;5010507;28;20033;-80
2021/12/30 03:40:59;;;;;;;46.42;8.18;;;;;;;;;;5008563;28;20053;-81
2021/12/30 03:43:25;;;;;;;64.30;9.20;;;;;;;;;;5015632;28;20124;-80
2021/12/30 03:45:52;;;;;;;56.60;8.15;;;;;;;;;;5015826;28;20474;-80
2021/12/30 03:48:18;;;;;;;69.57;8.18;;;;;;;;;;5010613;28;20436;-84
2021/12/30 03:50:45;;;;;;;58.33;7.68;;;;;;;;;;5018584;28;20084;-81
2021/12/30 03:53:12;;;;;;;69.45;8.38;;;;;;;;;;5007208;28;20060;-81
2021/12/30 03:55:38;;;;;;;68.28;9.07;;;;;;;;;;5016360;28;20045;-80
2021/12/30 03:58:05;;;;;;;57.65;9.30;;;;;;;;;;5009750;28;20112;-80
2021/12/30 04:00:31;;;;;;;58.85;8.90;;;;;;;;;;5012004;28;20104;-81
2021/12/30 04:02:57;;;;;;;81.40;12.45;;;;;;;;;;5019290;28;20026;-80
2021/12/30 04:05:24;;;;;;;73.28;10.43;;;;;;;;;;5010250;28;20041;-80
2021/12/30 04:07:50;;;;;;;61.78;11.05;;;;;;;;;;5003591;28;20101;-80
2021/12/30 04:10:19;;;;;;;71.25;11.43;;;;;;;;;;5015694;28;20041;-79
2021/12/30 04:12:45;;;;;;;49.03;10.43;;;;;;;;;;5015788;28;20042;-81
2021/12/30 04:15:11;;;;;;;69.38;11.63;;;;;;;;;;5004394;28;20513;-81
2021/12/30 04:17:37;;;;;;;76.88;13.00;;;;;;;;;;5012013;28;20050;-80
2021/12/30 04:20:07;;;;;;;82.88;13.07;;;;;;;;;;5008776;28;20098;-80
2021/12/30 04:22:33;;;;;;;54.80;11.27;;;;;;;;;;4994013;28;20052;-82
2021/12/30 04:24:59;;;;;;;75.63;12.40;;;;;;;;;;5001926;28;20461;-81
2021/12/30 04:27:26;;;;;;;78.22;14.45;;;;;;;;;;5022786;28;20521;-81
2021/12/30 04:29:52;;;;;;;84.32;14.77;;;;;;;;;;5017903;28;20038;-80
2021/12/30 04:32:18;;;;;;;71.00;13.15;;;;;;;;;;5017136;28;20099;-80
2021/12/30 04:34:44;;;;;;;80.35;15.25;;;;;;;;;;5022423;28;20042;-81
2021/12/30 04:37:20;;;;;;;75.32;15.88;;;;;;;;;;5102216;27;1936432;-81
2021/12/30 04:39:46;;;;;;;68.88;15.27;;;;;;;;;;5132947;27;20047;-81
2021/12/30 04:42:13;;;;;;;89.60;14.85;;;;;;;;;;5127922;27;20042;-80
2021/12/30 04:44:39;;;;;;;78.68;17.60;;;;;;;;;;5151826;27;20042;-83
2021/12/30 04:47:06;;;;;;;67.65;15.20;;;;;;;;;;5139816;27;20508;-82
2021/12/30 04:49:32;;;;;;;86.75;17.23;;;;;;;;;;5157471;27;20038;-82
2021/12/30 04:51:59;;;;;;;89.07;16.75;;;;;;;;;;5143776;27;20454;-82
2021/12/30 04:54:25;;;;;;;89.70;17.00;;;;;;;;;;5149002;27;20035;-81
2021/12/30 04:56:52;;;;;;;93.20;18.63;;;;;;;;;;5140821;27;20513;-81
2021/12/30 04:59:18;;;;;;;67.90;14.35;;;;;;;;;;5148237;27;20402;-81
2021/12/30 05:01:44;;;;;;;78.18;18.33;;;;;;;;;;5129107;27;20045;-82
2021/12/30 05:04:10;;;;;;;74.75;15.90;;;;;;;;;;5124714;27;20050;-82
2021/12/30 05:06:37;;;;;;;88.93;16.65;;;;;;;;;;5148401;27;20046;-81
2021/12/30 05:09:03;;;;;;;77.32;15.00;;;;;;;;;;5147990;27;20038;-81
2021/12/30 05:11:29;;;;;;;91.43;17.77;;;;;;;;;;5133827;27;20683;-82
2021/12/30 05:13:56;;;;;;;91.68;17.98;;;;;;;;;;5111489;27;20035;-81
2021/12/30 05:16:23;;;;;;;79.15;15.82;;;;;;;;;;5140128;27;20720;-80
2021/12/30 05:18:54;;;;;;;73.43;14.55;;;;;;;;;;5143727;27;20033;-81
2021/12/30 05:21:20;;;;;;;78.45;16.67;;;;;;;;;;5133554;27;20104;-81
2021/12/30 05:23:46;;;;;;;97.88;19.00;;;;;;;;;;5118017;27;20030;-82
2021/12/30 05:26:15;;;;;;;97.25;16.35;;;;;;;;;;5132055;27;20049;-81
2021/12/30 05:28:41;;;;;;;81.05;17.17;;;;;;;;;;5136219;27;20402;-82
2021/12/30 05:31:07;;;;;;;97.88;18.38;;;;;;;;;;5133173;27;20082;-81
2021/12/30 05:33:33;;;;;;;87.90;18.08;;;;;;;;;;5128161;27;20730;-83
2021/12/30 05:35:59;;;;;;;83.15;16.65;;;;;;;;;;5130909;27;20042;-81
2021/12/30 05:38:25;;;;;;;81.80;17.13;;;;;;;;;;5143375;27;20045;-81
2021/12/30 05:40:51;;;;;;;81.15;15.73;;;;;;;;;;5136281;27;20061;-82
2021/12/30 05:43:18;;;;;;;89.28;16.67;;;;;;;;;;5113199;27;21462;-81
2021/12/30 05:45:44;;;;;;;86.30;18.40;;;;;;;;;;5155245;27;20118;-83
2021/12/30 05:48:10;;;;;;;99.95;20.02;;;;;;;;;;5139176;27;20415;-82
2021/12/30 05:50:37;;;;;;;104.78;20.30;;;;;;;;;;5121883;27;20035;-81
2021/12/30 05:53:03;;;;;;;122.28;22.02;;;;;;;;;;5095578;27;20636;-80
2021/12/30 05:55:30;;;;;;;98.13;20.23;;;;;;;;;;5114076;27;20039;-82
2021/12/30 05:57:56;;;;;;;90.43;19.30;;;;;;;;;;5137559;27;20502;-82
2021/12/30 06:00:23;;;;;;;106.15;21.92;;;;;;;;;;5138022;27;20593;-82
2021/12/30 06:02:50;;;;;;;122.30;23.67;;;;;;;;;;5117336;27;20047;-82
2021/12/30 06:05:17;;;;;;;113.38;24.58;;;;;;;;;;5099656;27;20035;-82
2021/12/30 06:07:43;;;;;;;78.97;18.75;;;;;;;;;;5138989;27;20142;-80
2021/12/30 06:10:09;;;;;;;109.13;24.65;;;;;;;;;;5130329;27;20043;-81
2021/12/30 06:12:36;;;;;;;111.45;23.50;;;;;;;;;;5132721;27;20103;-80
2021/12/30 06:15:02;;;;;;;114.55;26.35;;;;;;;;;;5123896;27;20499;-81
2021/12/30 06:17:28;;;;;;;97.55;25.73;;;;;;;;;;5119459;27;20531;-81
2021/12/30 06:19:54;;;;;;;117.63;26.48;;;;;;;;;;5129345;27;20125;-82
2021/12/30 06:22:20;;;;;;;126.60;29.63;;;;;;;;;;5119989;27;20046;-81
2021/12/30 06:24:46;;;;;;;128.50;30.92;;;;;;;;;;5132120;27;20038;-80
2021/12/30 06:27:12;;;;;;;133.70;32.63;;;;;;;;;;5121067;27;20038;-81
2021/12/30 06:29:39;;;;;;;110.28;27.40;;;;;;;;;;5116820;27;20039;-80
2021/12/30 06:32:05;;;;;;;119.68;28.73;;;;;;;;;;5104278;27;20045;-82
2021/12/30 06:34:32;;;;;;;128.68;32.28;;;;;;;;;;5153832;27;20053;-81
2021/12/30 06:36:58;;;;;;;121.57;29.67;;;;;;;;;;5131900;27;20061;-81
2021/12/30 06:39:24;;;;;;;120.35;30.52;;;;;;;;;;5109366;28;20075;-81
2021/12/30 06:41:50;;;;;;;118.93;29.55;;;;;;;;;;5125671;27;20505;-82
2021/12/30 06:44:16;;;;;;;124.90;33.05;;;;;;;;;;5151122;27;20038;-81
2021/12/30 06:46:52;;;;;;;110.25;29.73;;;;;;;;;;5132547;27;20035;-81
2021/12/30 06:49:18;;;;;;;120.88;28.48;;;;;;;;;;5113247;27;20051;-82
2021/12/30 06:51:44;;;;;;;108.63;29.58;;;;;;;;;;5128330;27;20039;-82
2021/12/30 06:54:10;;;;;;;120.00;31.00;;;;;;;;;;5127977;27;20043;-82
2021/12/30 06:56:36;;;;;;;117.68;30.73;;;;;;;;;;5115207;27;20035;-81
2021/12/30 06:59:03;;;;;;;91.18;28.50;;;;;;;;;;5118737;27;20035;-82
2021/12/30 07:01:30;;;;;;;101.97;27.23;;;;;;;;;;5111407;27;20045;-82
2021/12/30 07:03:56;;;;;;;97.22;28.35;;;;;;;;;;5116070;27;20160;-83
2021/12/30 07:06:22;;;;;;;85.65;25.58;;;;;;;;;;5110923;27;20050;-83
2021/12/30 07:08:48;;;;;;;77.25;24.77;;;;;;;;;;5108885;27;20046;-82
2021/12/30 07:11:14;;;;;;;77.45;22.30;;;;;;;;;;5113564;27;20080;-83
2021/12/30 07:13:40;;;;;;;66.55;20.52;;;;;;;;;;5103190;27;20073;-82
2021/12/30 07:16:06;;;;;;;69.45;20.20;;;;;;;;;;5121221;27;20047;-82
2021/12/30 07:18:34;;;;;;;80.53;22.45;;;;;;;;;;5119813;27;20043;-81
2021/12/30 07:21:00;;;;;;;78.05;21.17;;;;;;;;;;5117805;27;20040;-81
2021/12/30 07:23:26;;;;;;;81.70;22.27;;;;;;;;;;5122651;27;20142;-83
2021/12/30 07:25:52;;;;;;;76.55;23.10;;;;;;;;;;5135173;27;20107;-83
2021/12/30 07:28:19;;;;;;;78.97;21.92;;;;;;;;;;5117597;27;20027;-83
2021/12/30 07:30:45;;;;;;;76.25;22.40;;;;;;;;;;5118919;27;20054;-83
2021/12/30 07:33:11;;;;;;;80.55;22.02;;;;;;;;;;5117630;27;20069;-84
2021/12/30 07:35:38;;;;;;;82.68;21.40;;;;;;;;;;5117017;27;20042;-84
2021/12/30 07:38:04;;;;;;;74.85;19.70;;;;;;;;;;5114503;27;20086;-82
2021/12/30 07:40:31;;;;;;;83.10;21.35;;;;;;;;;;5117415;27;20071;-83
2021/12/30 07:42:57;;;;;;;82.85;21.83;;;;;;;;;;5118124;27;20051;-83
2021/12/30 07:45:23;;;;;;;83.97;21.40;;;;;;;;;;5100545;27;20046;-84
2021/12/30 07:47:50;;;;;;;79.68;19.67;;;;;;;;;;5095591;27;20044;-84
2021/12/30 07:50:16;;;;;;;73.40;18.08;;;;;;;;;;5115174;27;20050;-83
2021/12/30 07:52:42;;;;;;;75.95;19.65;;;;;;;;;;5117100;27;20031;-84
2021/12/30 07:55:09;;;;;;;86.07;20.92;;;;;;;;;;5099965;28;20424;-84
2021/12/30 07:57:35;;;;;;;55.33;15.80;;;;;;;;;;5101060;27;20150;-83
2021/12/30 08:00:04;;;;;;;77.15;18.98;;;;;;;;;;5105685;28;20039;-84
2021/12/30 08:02:30;;;;;;;80.68;19.73;;;;;;;;;;5118822;27;20368;-82
2021/12/30 08:04:56;;;;;;;75.68;17.02;;;;;;;;;;5108152;27;20066;-84
2021/12/30 08:07:24;;;;;;;90.53;19.45;;;;;;;;;;5114895;27;20039;-85
2021/12/30 08:09:50;;;;;;;74.53;18.10;;;;;;;;;;5114910;27;20054;-85
2021/12/30 08:12:17;;;;;;;87.75;19.73;;;;;;;;;;5117273;27;20122;-85
2021/12/30 08:14:43;;;;;;;76.30;17.35;;;;;;;;;;5112307;27;20164;-84
2021/12/30 08:17:09;;;;;;;65.75;17.42;;;;;;;;;;5109186;27;20043;-85
2021/12/30 08:19:35;;;;;;;62.58;15.50;;;;;;;;;;5111160;27;20048;-84
2021/12/30 08:22:03;;;;;;;64.28;16.15;;;;;;;;;;5107686;27;20035;-85
2021/12/30 08:24:29;;;;;;;63.22;16.70;;;;;;;;;;5116669;27;20023;-85
2021/12/30 08:26:56;;;;;;;59.80;16.35;;;;;;;;;;5106913;28;20032;-85
2021/12/30 08:29:22;;;;;;;52.95;13.98;;;;;;;;;;5112398;27;20057;-85
2021/12/30 08:31:48;;;;;;;50.63;15.00;;;;;;;;;;5105593;27;20089;-86
2021/12/30 08:34:14;;;;;;;44.92;14.00;;;;;;;;;;5115924;28;20302;-86
2021/12/30 08:36:40;;;;;;;44.72;14.65;;;;;;;;;;5107756;27;20066;-89
2021/12/30 08:39:06;;;;;;;33.60;11.77;;;;;;;;;;5139918;27;20061;-86
2021/12/30 08:41:32;;;;;;;40.38;13.90;;;;;;;;;;5130109;27;20107;-86
2021/12/30 08:43:58;;;;;;;30.08;11.23;;;;;;;;;;5094723;27;20126;-86
2021/12/30 08:46:25;;;;;;;39.67;15.07;;;;;;;;;;5112529;27;20070;-85
2021/12/30 08:48:51;;;;;;;36.17;13.20;;;;;;;;;;5103562;27;20047;-84
2021/12/30 08:51:17;;;;;;;38.22;14.48;;;;;;;;;;5108346;27;20049;-84
2021/12/30 08:53:43;;;;;;;33.70;13.13;;;;;;;;;;5127068;27;20035;-85
2021/12/30 08:56:11;;;;;;;37.75;13.98;;;;;;;;;;5145810;27;20092;-84
2021/12/30 08:58:37;;;;;;;25.50;11.50;;;;;;;;;;5130757;27;20130;-85
2021/12/30 09:01:03;;;;;;;18.58;8.93;;;;;;;;;;5094380;27;20080;-83
2021/12/30 09:03:30;;;;;;;16.45;8.32;;;;;;;;;;5106023;27;20095;-84
2021/12/30 09:06:05;;;;;;;22.60;9.40;;;;;;;;;;5109902;27;20118;-84
2021/12/30 09:08:32;;;;;;;17.73;9.18;;;;;;;;;;5108888;28;20095;-83
2021/12/30 09:10:58;;;;;;;13.15;7.00;;;;;;;;;;5132841;27;20075;-84
2021/12/30 09:13:24;;;;;;;20.90;10.40;;;;;;;;;;5100660;27;20045;-83
2021/12/30 09:15:50;;;;;;;16.63;9.73;;;;;;;;;;5113242;27;20513;-84
2021/12/30 09:18:16;;;;;;;13.73;8.60;;;;;;;;;;5144084;27;20421;-84
2021/12/30 09:20:43;;;;;;;17.38;10.30;;;;;;;;;;5124676;27;20039;-85
2021/12/30 09:23:10;;;;;;;15.85;9.05;;;;;;;;;;5112644;27;20095;-84
2021/12/30 09:25:37;;;;;;;16.30;8.98;;;;;;;;;;5094668;27;20146;-85
2021/12/30 09:28:03;;;;;;;16.70;10.35;;;;;;;;;;5103103;27;20057;-83
2021/12/30 09:30:30;;;;;;;20.45;11.07;;;;;;;;;;5137540;27;20130;-85
2021/12/30 09:33:02;;;;;;;17.15;9.73;;;;;;;;;;5148646;27;20034;-83
2021/12/30 09:35:29;;;;;;;19.42;11.10;;;;;;;;;;5104081;27;20099;-88
2021/12/30 09:37:55;;;;;;;17.20;10.00;;;;;;;;;;5143634;27;20081;-84
2021/12/30 09:40:22;;;;;;;19.05;9.00;;;;;;;;;;5145494;27;20571;-85
2021/12/30 09:42:52;;;;;;;18.55;9.20;;;;;;;;;;5120201;27;20074;-85
2021/12/30 09:45:19;;;;;;;13.50;6.47;;;;;;;;;;5139786;27;20046;-86
2021/12/30 09:47:55;;;;;;;18.17;8.30;;;;;;;;;;5122359;27;20038;-88
2021/12/30 09:50:26;;;;;;;18.80;8.30;;;;;;;;;;5130230;27;20051;-87
2021/12/30 09:52:52;;;;;;;16.60;7.80;;;;;;;;;;5125987;27;20046;-84
2021/12/30 09:55:19;;;;;;;15.02;6.25;;;;;;;;;;5086834;27;20051;-85
2021/12/30 09:57:45;;;;;;;21.95;8.13;;;;;;;;;;5129517;27;20050;-84
2021/12/30 10:00:13;;;;;;;26.05;9.18;;;;;;;;;;5111875;27;20035;-85
2021/12/30 10:02:42;;;;;;;20.13;7.80;;;;;;;;;;5099749;27;20490;-88
2021/12/30 10:05:11;;;;;;;24.67;10.07;;;;;;;;;;5126960;27;20040;-83
2021/12/30 10:07:41;;;;;;;33.92;10.07;;;;;;;;;;5090857;27;20399;-83
2021/12/30 10:10:25;;;;;;;21.02;8.43;;;11.70;99.90;;;;;;5129558;27;20394;-84
2021/12/30 10:12:52;;;;;;;23.73;8.40;;;;;;;;;;5121155;27;20046;-84
2021/12/30 10:15:20;;;;;;;24.77;9.70;;;;;;;;;;5126170;27;20051;-83
2021/12/30 10:17:53;;;;;;;27.80;8.43;;;;;;;;;;5135671;27;20061;-83
2021/12/30 10:20:24;;;;;;;19.63;8.40;;;;;;;;;;5117651;27;20505;-83
2021/12/30 10:22:51;;;;;;;22.45;7.03;;;;;;;;;;5125546;27;20490;-84
2021/12/30 10:25:29;;;;;;;32.22;9.23;;;;;;;;;;5113820;27;20064;-82
2021/12/30 10:27:56;;;;;;;25.35;8.68;;;;;;;;;;5111068;27;20047;-84
2021/12/30 10:30:35;;;;;;;32.85;10.73;;;;;;;;;;5126628;27;20069;-83
2021/12/30 10:33:19;;;;;;;34.17;9.95;;;;;;;;;;5101959;27;20034;-84
2021/12/30 10:35:46;;;;;;;25.23;9.65;;;;;;;;;;5110534;27;20044;-83
2021/12/30 10:38:12;;;;;;;28.95;10.05;;;;;;;;;;5106474;27;20118;-82
2021/12/30 10:40:44;;;;;;;33.13;9.60;;;;;;;;;;5111491;27;20376;-86
2021/12/30 10:43:23;;;;;;;33.53;9.02;;;;;;;;;;5141589;27;20060;-88
2021/12/30 10:46:03;;;;;;;33.22;10.32;;;;;;;;;;5099201;27;20500;-85
2021/12/30 10:48:29;;;;;;;29.65;9.27;;;;;;;;;;5097152;27;20483;-85
2021/12/30 10:51:12;;;;;;;23.90;7.47;;;;;;;;;;5132145;27;20045;-85
2021/12/30 10:53:38;;;;;;;26.92;8.73;;;;;;;;;;5134867;27;20049;-85
2021/12/30 10:56:20;;;;;;;27.90;8.65;;;;;;;;;;5139549;27;20430;-86
2021/12/30 10:58:47;;;;;;;23.40;7.30;;;;;;;;;;5121801;27;20049;-87
2021/12/30 11:01:17;;;;;;;28.00;6.80;;;;;;;;;;5123835;27;20051;-85
2021/12/30 11:03:54;;;;;;;34.42;7.80;;;;;;;;;;5107474;27;20046;-86
2021/12/30 11:06:20;;;;;;;22.83;5.65;;;;;;;;;;5102634;27;20133;-86
2021/12/30 11:08:49;;;;;;;27.75;6.95;;;;;;;;;;5104661;27;20039;-87
2021/12/30 11:11:34;;;;;;;29.42;5.82;;;;;;;;;;5107007;27;20046;-87
2021/12/30 11:14:00;;;;;;;23.52;7.10;;;;;;;;;;5089097;27;20035;-86
2021/12/30 11:16:26;;;;;;;25.85;6.40;;;;;;;;;;5124627;27;20039;-86
2021/12/30 11:18:52;;;;;;;22.77;6.60;;;;;;;;;;5109497;27;20129;-87
2021/12/30 11:21:37;;;;;;;27.15;7.15;;;;;;;;;;5091063;27;20078;-86
2021/12/30 11:24:15;;;;;;;30.52;7.25;;;;;;;;;;5090069;27;20161;-87
2021/12/30 11:26:44;;;;;;;26.00;6.22;;;;;;;;;;5069604;27;20071;-85
2021/12/30 11:29:10;;;;;;;34.65;6.50;;;;;;;;;;5124072;27;20039;-86
2021/12/30 11:31:36;;;;;;;33.03;7.63;;;;;;;;;;5109964;27;20031;-86
2021/12/30 11:34:03;;;;;;;29.05;6.40;;;;;;;;;;5121993;27;20042;-86
2021/12/30 11:36:29;;;;;;;34.28;6.90;;;;;;;;;;5138480;27;20035;-87
2021/12/30 11:38:56;;;;;;;46.05;8.82;;;;;;;;;;5141442;27;20036;-87
2021/12/30 11:41:24;;;;;;;48.15;8.63;;;;;;;;;;5099931;27;20051;-87
2021/12/30 11:43:51;;;;;;;52.35;9.07;;;;;;;;;;5112072;27;20035;-87
2021/12/30 11:49:53;;;;;;;51.03;9.43;;;;;;;;;;5116657;27;20057;-88
2021/12/30 11:52:38;;;;;;;54.70;9.50;;;;;;;;;;5128629;27;20051;-86
2021/12/30 11:55:24;;;;;;;71.80;11.10;;;;;;;;;;5113293;27;20046;-87
2021/12/30 11:57:50;;;;;;;50.20;7.93;;;;;;;;;;5092040;27;20478;-86
2021/12/30 12:00:34;;;;;;;51.67;9.05;;;;;;;;;;5115888;27;20546;-86
2021/12/30 12:03:02;;;;;;;37.97;7.53;;;;;;;;;;5103084;27;20111;-87
2021/12/30 12:05:44;;;;;;;43.30;8.10;;;;;;;;;;5116162;27;20119;-86
2021/12/30 12:08:12;;;;;;;61.13;11.85;;;;;;;;;;5100973;27;20055;-87
2021/12/30 12:10:40;;;;;;;74.03;9.88;;;;;;;;;;5115894;27;20043;-87
2021/12/30 12:13:25;;;;;;;65.45;12.70;;;;;;;;;;5098174;27;20137;-86
2021/12/30 12:15:51;;;;;;;63.80;11.13;;;;;;;;;;5136542;27;20043;-87
2021/12/30 12:18:17;;;;;;;51.63;10.10;;;;;;;;;;5095418;27;20498;-87
2021/12/30 12:20:54;;;;;;;54.67;9.55;;;;;;;;;;5096004;27;20041;-89
2021/12/30 12:23:33;;;;;;;67.95;11.15;;;;;;;;;;5105828;27;20148;-88
2021/12/30 12:26:07;;;;;;;38.13;7.18;;;;;;;;;;5101468;27;20130;-87
2021/12/30 12:28:33;;;;;;;74.53;12.20;;;;;;;;;;5107778;27;20043;-87
2021/12/30 12:30:59;;;;;;;53.15;9.68;;;;;;;;;;5135879;27;20493;-87
2021/12/30 12:33:32;;;;;;;61.42;11.18;;;;;;;;;;5092277;27;20073;-86
2021/12/30 12:35:58;;;;;;;70.95;12.98;;;;;;;;;;5131797;27;20043;-86
2021/12/30 12:38:36;;;;;;;65.22;10.77;;;;;;;;;;5108597;28;20043;-87
2021/12/30 12:41:15;;;;;;;67.28;11.35;;;;;;;;;;5104680;27;20031;-86
2021/12/30 12:43:41;;;;;;;69.35;11.15;;;;;;;;;;5110946;27;20445;-86
2021/12/30 12:46:07;;;;;;;48.53;8.82;;;;;;;;;;5124471;27;20054;-86
2021/12/30 12:48:38;;;;;;;31.75;6.65;;;;;;;;;;5125185;27;20425;-86
2021/12/30 12:51:24;;;;;;;47.58;8.93;;;;;;;;;;5104503;27;20047;-86
2021/12/30 12:53:53;;;;;;;63.72;9.30;;;;;;;;;;5120961;27;20084;-85
2021/12/30 12:56:28;;;;;;;41.00;7.72;;;;;;;;;;5103349;27;20245;-84
2021/12/30 12:58:54;;;;;;;53.05;9.07;;;;;;;;;;5127519;27;20039;-84
2021/12/30 13:01:22;;;;;;;47.47;9.18;;;;;;;;;;5126730;27;20040;-83
2021/12/30 13:03:49;;;;;;;58.15;10.13;;;;;;;;;;5127531;27;20049;-85
2021/12/30 13:06:17;;;;;;;46.05;9.48;;;;;;;;;;5096422;27;20054;-85
2021/12/30 13:08:48;;;;;;;49.30;9.50;;;;;;;;;;5108853;27;20121;-84
2021/12/30 13:11:24;;;;;;;43.95;8.20;;;;;;;;;;5130535;27;20047;-85
2021/12/30 13:13:51;;;;;;;42.13;8.82;;;;;;;;;;5125544;27;20039;-86
2021/12/30 13:16:23;;;;;;;58.78;10.27;;;;;;;;;;5146169;27;20043;-85
2021/12/30 13:19:03;;;;;;;57.47;10.07;;;;;;;;;;5115814;27;20059;-85
2021/12/30 13:21:38;;;;;;;42.08;8.75;;;;;;;;;;5120822;27;20043;-85
2021/12/30 13:24:04;;;;;;;54.58;8.00;;;;;;;;;;5134145;27;20027;-84
2021/12/30 13:26:37;;;;;;;46.42;9.25;;;;;;;;;;5110629;27;20047;-84
2021/12/30 13:29:03;;;;;;;49.72;9.77;;;;;;;;;;5115071;27;20141;-84
2021/12/30 13:31:31;;;;;;;49.58;8.55;;;;;;;;;;5139305;27;20042;-84
2021/12/30 13:33:58;;;;;;;47.90;8.70;;;;;;;;;;5116156;27;20092;-86
2021/12/30 13:36:25;;;;;;;52.25;8.15;;;;;;;;;;5148785;27;20046;-84
2021/12/30 13:38:52;;;;;;;54.90;10.40;;;;;;;;;;5118354;27;20517;-83
2021/12/30 13:41:19;;;;;;;62.65;10.13;;;;;;;;;;5100211;27;20074;-85
2021/12/30 13:43:48;;;;;;;63.33;10.63;;;;;;;;;;5139808;27;20042;-86
2021/12/30 13:46:16;;;;;;;44.78;8.90;;;;;;;;;;5121438;27;20075;-86
2021/12/30 13:48:44;;;;;;;42.40;9.00;;;;;;;;;;5116042;27;20039;-85
2021/12/30 13:51:24;;;;;;;37.45;7.35;;;;;;;;;;5109974;27;20047;-86
2021/12/30 13:53:50;;;;;;;42.95;7.90;;;;;;;;;;5135553;27;20043;-85
2021/12/30 13:56:24;;;;;;;46.72;9.48;;;;;;;;;;5113058;27;20039;-87
2021/12/30 13:58:51;;;;;;;47.55;8.50;;;;;;;;;;5102273;27;20336;-85
2021/12/30 14:01:18;;;;;;;51.08;7.95;;;;;;;;;;5139855;27;20434;-84
2021/12/30 14:03:46;;;;;;;46.88;8.05;;;;;;;;;;5140420;27;20043;-85
2021/12/30 14:06:12;;;;;;;46.90;9.38;;;;;;;;;;5111391;27;20525;-86
2021/12/30 14:08:40;;;;;;;38.80;7.35;;;;;;;;;;5130211;27;20919;-86
2021/12/30 14:11:07;;;;;;;50.28;9.40;;;;;;;;;;5112942;27;20061;-87
2021/12/30 14:13:34;;;;;;;40.80;8.13;;;;;;;;;;5111428;27;20134;-87
2021/12/30 14:16:00;;;;;;;48.97;9.82;;;;;;;;;;5120232;27;20049;-89
2021/12/30 14:18:30;;;;;;;43.97;9.35;;;;;;;;;;5116362;27;20066;-88
2021/12/30 14:20:56;;;;;;;47.88;9.00;;;;;;;;;;5115491;27;20058;-87
2021/12/30 14:23:34;;;;;;;39.90;7.10;;;;;;;;;;5112101;27;20066;-86
2021/12/30 14:26:29;;;;;;;52.67;9.90;;;;;;;;;;5108827;27;20597;-86
2021/12/30 14:28:58;;;;;;;42.10;8.68;;;;;;;;;;5078305;27;20562;-86
2021/12/30 14:31:28;;;;;;;52.15;8.82;;;;;;;;;;5131480;27;20091;-87
2021/12/30 14:34:06;;;;;;;54.83;9.90;;;;;;;;;;5144235;27;20151;-87
2021/12/30 14:36:32;;;;;;;45.00;8.82;;;;;;;;;;5109000;27;20043;-86